createdAt,value
2019-06-01T00:01:17.565Z,13.92
2019-06-01T00:03:46.833Z,13.81
2019-06-01T00:06:16.055Z,13.76
2019-06-01T00:08:45.337Z,13.74
2019-06-01T00:11:14.558Z,13.77
2019-06-01T00:13:44.074Z,13.81
2019-06-01T00:16:13.306Z,13.88
2019-06-01T00:18:43.912Z,13.89
2019-06-01T00:21:13.278Z,13.92
2019-06-01T00:23:42.637Z,13.92
2019-06-01T00:26:11.865Z,13.71
2019-06-01T00:28:41.662Z,13.52
2019-06-01T00:31:10.937Z,13.50
2019-06-01T00:33:41.179Z,13.42
2019-06-01T00:36:10.394Z,13.39
2019-06-01T00:38:39.677Z,13.39
2019-06-01T00:41:08.887Z,13.37
2019-06-01T00:43:38.147Z,13.34
2019-06-01T00:46:07.651Z,13.26
2019-06-01T00:48:36.891Z,13.25
2019-06-01T00:51:06.111Z,13.20
2019-06-01T00:53:35.345Z,13.17
2019-06-01T00:56:04.559Z,13.28
2019-06-01T00:58:33.801Z,13.36
2019-06-01T01:01:03.293Z,13.36
2019-06-01T01:03:32.809Z,13.36
2019-06-01T01:06:02.052Z,13.33
2019-06-01T01:08:31.591Z,13.31
2019-06-01T01:11:00.800Z,13.22
2019-06-01T01:13:30.429Z,13.25
2019-06-01T01:15:59.628Z,13.22
2019-06-01T01:18:28.881Z,13.23
2019-06-01T01:20:58.290Z,13.22
2019-06-01T01:23:27.571Z,13.23
2019-06-01T01:25:56.786Z,13.21
2019-06-01T01:28:26.129Z,13.24
2019-06-01T01:31:06.859Z,13.11
2019-06-01T01:33:26.576Z,12.83
2019-06-01T01:35:55.918Z,12.76
2019-06-01T01:38:25.103Z,12.75
2019-06-01T01:40:54.445Z,12.81
2019-06-01T01:43:23.931Z,12.76
2019-06-01T01:45:53.245Z,12.67
2019-06-01T01:48:22.471Z,12.63
2019-06-01T01:50:52.405Z,12.58
2019-06-01T01:53:21.743Z,12.57
2019-06-01T01:55:51.055Z,12.60
2019-06-01T01:58:20.465Z,12.58
2019-06-01T02:00:52.953Z,12.57
2019-06-01T02:03:21.523Z,12.59
2019-06-01T02:05:50.869Z,12.70
2019-06-01T02:08:20.072Z,12.59
2019-06-01T02:10:49.349Z,12.51
2019-06-01T02:13:18.660Z,12.57
2019-06-01T02:15:47.985Z,12.64
2019-06-01T02:18:17.203Z,12.63
2019-06-01T02:20:46.833Z,12.53
2019-06-01T02:23:16.042Z,12.52
2019-06-01T02:25:45.467Z,12.50
2019-06-01T02:28:14.706Z,12.35
2019-06-01T02:30:43.985Z,12.37
2019-06-01T02:33:13.222Z,12.37
2019-06-01T02:35:42.521Z,12.33
2019-06-01T02:38:11.748Z,12.31
2019-06-01T02:40:41.000Z,12.18
2019-06-01T02:43:10.248Z,12.28
2019-06-01T02:45:39.473Z,12.31
2019-06-01T02:48:08.805Z,12.27
2019-06-01T02:50:38.071Z,12.28
2019-06-01T02:53:09.379Z,12.15
2019-06-01T02:55:38.642Z,11.96
2019-06-01T02:58:07.847Z,11.92
2019-06-01T03:01:21.075Z,11.86
2019-06-01T03:03:51.992Z,11.92
2019-06-01T03:06:21.309Z,12.04
2019-06-01T03:08:52.894Z,12.06
2019-06-01T03:11:25.107Z,12.04
2019-06-01T03:13:58.262Z,12.03
2019-06-01T03:16:30.425Z,11.99
2019-06-01T03:19:03.691Z,12.00
2019-06-01T03:21:33.857Z,11.97
2019-06-01T03:24:08.142Z,11.94
2019-06-01T03:26:43.463Z,11.87
2019-06-01T03:29:16.726Z,11.83
2019-06-01T03:31:46.020Z,11.85
2019-06-01T03:34:15.245Z,11.77
2019-06-01T03:36:44.943Z,11.80
2019-06-01T03:39:14.179Z,11.74
2019-06-01T03:41:43.531Z,11.78
2019-06-01T03:44:13.088Z,11.81
2019-06-01T03:46:42.423Z,11.96
2019-06-01T03:49:12.029Z,12.01
2019-06-01T03:51:41.384Z,11.99
2019-06-01T03:54:10.706Z,11.93
2019-06-01T03:56:40.085Z,11.97
2019-06-01T03:59:09.497Z,11.98
2019-06-01T04:01:38.734Z,12.07
2019-06-01T04:04:09.320Z,12.16
2019-06-01T04:06:38.651Z,12.22
2019-06-01T04:09:09.740Z,12.34
2019-06-01T04:11:39.159Z,12.36
2019-06-01T04:14:09.645Z,12.46
2019-06-01T04:16:42.312Z,12.49
2019-06-01T04:19:12.167Z,12.51
2019-06-01T04:21:41.501Z,12.45
2019-06-01T04:24:10.779Z,12.44
2019-06-01T04:26:40.004Z,12.57
2019-06-01T04:29:10.362Z,12.55
2019-06-01T04:31:39.775Z,12.59
2019-06-01T04:34:09.379Z,12.66
2019-06-01T04:36:38.678Z,12.74
2019-06-01T04:39:09.457Z,12.81
2019-06-01T04:41:38.795Z,12.90
2019-06-01T04:44:08.157Z,12.94
2019-06-01T04:46:37.450Z,13.11
2019-06-01T04:49:06.721Z,13.27
2019-06-01T04:51:35.940Z,13.39
2019-06-01T04:54:06.839Z,13.49
2019-06-01T04:56:36.370Z,13.46
2019-06-01T04:59:07.087Z,13.60
2019-06-01T05:01:36.367Z,13.79
2019-06-01T05:09:34.424Z,14.16
2019-06-01T05:12:05.237Z,14.48
2019-06-01T05:14:35.375Z,14.65
2019-06-01T05:17:05.808Z,14.66
2019-06-01T05:19:36.283Z,14.79
2019-06-01T05:22:06.436Z,14.83
2019-06-01T05:24:36.776Z,14.96
2019-06-01T05:27:09.029Z,14.99
2019-06-01T05:29:40.016Z,15.13
2019-06-01T05:32:12.609Z,15.12
2019-06-01T05:34:46.659Z,15.10
2019-06-01T05:37:29.676Z,15.24
2019-06-01T05:40:01.326Z,15.28
2019-06-01T05:42:33.021Z,15.41
2019-06-01T05:45:03.086Z,15.48
2019-06-01T05:47:37.705Z,15.62
2019-06-01T05:50:10.473Z,15.80
2019-06-01T05:55:16.769Z,16.31
2019-06-01T05:57:46.017Z,16.43
2019-06-01T06:00:15.568Z,16.76
2019-06-01T06:02:45.459Z,16.82
2019-06-01T06:05:16.615Z,16.89
2019-06-01T06:07:46.382Z,17.28
2019-06-01T06:10:16.072Z,17.23
2019-06-01T06:12:45.498Z,17.72
2019-06-01T06:15:15.775Z,17.77
2019-06-01T06:17:45.088Z,17.86
2019-06-01T06:20:15.911Z,17.99
2019-06-01T06:22:45.332Z,18.07
2019-06-01T06:25:14.540Z,18.15
2019-06-01T06:27:43.793Z,18.39
2019-06-01T06:30:13.135Z,18.49
2019-06-01T06:32:42.496Z,18.57
2019-06-01T06:35:11.978Z,18.81
2019-06-01T06:37:43.359Z,18.97
2019-06-01T06:40:14.566Z,18.89
2019-06-01T06:42:43.933Z,19.06
2019-06-01T06:45:14.585Z,19.36
2019-06-01T06:47:44.356Z,19.36
2019-06-01T06:50:17.742Z,19.59
2019-06-01T06:52:48.300Z,19.59
2019-06-01T06:55:19.863Z,19.53
2019-06-01T06:57:50.390Z,19.89
2019-06-01T07:00:20.607Z,19.89
2019-06-01T07:02:51.183Z,20.43
2019-06-01T07:05:21.348Z,20.43
2019-06-01T07:07:50.799Z,20.35
2019-06-01T07:10:20.192Z,20.35
2019-06-01T07:12:50.809Z,20.07
2019-06-01T07:15:21.384Z,20.33
2019-06-01T07:17:55.119Z,20.54
2019-06-01T07:20:24.343Z,20.53
2019-06-01T07:22:53.648Z,20.85
2019-06-01T07:25:22.905Z,21.03
2019-06-01T07:27:52.284Z,21.21
2019-06-01T07:30:28.459Z,21.49
2019-06-01T07:32:57.904Z,21.76
2019-06-01T07:35:28.447Z,21.94
2019-06-01T07:38:18.371Z,21.67
2019-06-01T07:40:47.754Z,21.60
2019-06-01T07:44:18.163Z,21.77
2019-06-01T08:28:50.340Z,22.75
2019-06-01T08:31:39.513Z,22.74
2019-06-01T08:43:58.785Z,22.32
2019-06-01T08:47:34.048Z,22.71
2019-06-01T08:50:05.220Z,22.86
2019-06-01T08:52:34.492Z,23.16
2019-06-01T08:56:04.972Z,23.14
2019-06-01T08:58:50.236Z,23.33
2019-06-01T09:01:42.407Z,23.12
2019-06-01T09:07:02.119Z,23.42
2019-06-01T09:09:33.034Z,23.16
2019-06-01T09:12:31.374Z,23.08
2019-06-01T09:15:20.184Z,23.04
2019-06-01T09:17:49.548Z,23.17
2019-06-01T09:20:23.407Z,22.99
2019-06-01T09:23:03.686Z,22.91
2019-06-01T09:25:52.304Z,23.19
2019-06-01T09:28:21.694Z,23.32
2019-06-01T09:30:50.965Z,23.00
2019-06-01T09:34:06.539Z,23.29
2019-06-01T09:40:13.519Z,23.12
2019-06-01T09:42:42.809Z,23.36
2019-06-01T09:45:12.588Z,23.46
2019-06-01T09:47:42.679Z,23.43
2019-06-01T09:50:14.116Z,23.16
2019-06-01T09:52:47.700Z,23.07
2019-06-01T09:55:17.060Z,22.82
2019-06-01T09:57:48.996Z,23.17
2019-06-01T10:00:18.653Z,23.43
2019-06-01T10:02:47.881Z,23.25
2019-06-01T10:05:17.816Z,23.54
2019-06-01T10:07:47.060Z,23.51
2019-06-01T10:10:16.671Z,23.52
2019-06-01T10:12:45.918Z,23.48
2019-06-01T10:15:15.969Z,23.18
2019-06-01T10:17:45.258Z,23.33
2019-06-01T10:20:14.625Z,23.52
2019-06-01T10:23:06.913Z,23.73
2019-06-01T10:25:51.707Z,23.56
2019-06-01T10:30:54.273Z,23.91
2019-06-01T10:33:23.507Z,23.83
2019-06-01T10:35:52.812Z,23.97
2019-06-01T10:38:22.036Z,23.96
2019-06-01T10:40:51.651Z,23.90
2019-06-01T10:43:21.581Z,24.14
2019-06-01T10:45:50.947Z,24.21
2019-06-01T10:48:20.178Z,24.33
2019-06-01T10:50:49.823Z,24.37
2019-06-01T10:53:19.108Z,24.50
2019-06-01T10:55:48.714Z,24.40
2019-06-01T10:58:18.059Z,24.63
2019-06-01T11:00:51.019Z,24.39
2019-06-01T11:03:18.589Z,24.68
2019-06-01T11:05:52.304Z,24.58
2019-06-01T11:08:21.584Z,24.66
2019-06-01T11:10:53.703Z,24.76
2019-06-01T11:16:57.346Z,24.39
2019-06-01T11:28:21.698Z,24.90
2019-06-01T11:30:51.054Z,24.63
2019-06-01T11:33:20.409Z,24.41
2019-06-01T11:35:51.525Z,24.75
2019-06-01T11:38:20.740Z,25.03
2019-06-01T11:41:18.700Z,25.29
2019-06-01T11:43:47.723Z,25.47
2019-06-01T11:46:17.240Z,25.70
2019-06-01T11:48:46.561Z,25.34
2019-06-01T11:51:15.821Z,25.40
2019-06-01T11:53:45.695Z,25.30
2019-06-01T11:56:15.124Z,25.48
2019-06-01T11:58:45.510Z,25.53
2019-06-01T12:01:15.173Z,25.56
2019-06-01T12:03:46.065Z,25.74
2019-06-01T12:06:15.394Z,25.78
2019-06-01T12:08:44.686Z,25.71
2019-06-01T12:11:14.336Z,26.01
2019-06-01T12:13:44.491Z,26.23
2019-06-01T12:16:13.776Z,26.01
2019-06-01T12:18:44.624Z,25.98
2019-06-01T12:21:15.037Z,26.13
2019-06-01T12:23:45.629Z,26.31
2019-06-01T12:26:15.050Z,26.16
2019-06-01T12:28:45.731Z,26.02
2019-06-01T12:31:15.177Z,26.02
2019-06-01T12:33:46.273Z,26.61
2019-06-01T12:36:15.691Z,26.47
2019-06-01T12:38:52.244Z,26.67
2019-06-01T12:41:22.614Z,27.00
2019-06-01T12:44:10.949Z,27.50
2019-06-01T12:46:40.273Z,27.37
2019-06-01T12:49:09.642Z,27.34
2019-06-01T12:51:40.499Z,27.67
2019-06-01T12:54:10.382Z,28.23
2019-06-01T12:56:40.766Z,28.28
2019-06-01T12:59:10.043Z,27.94
2019-06-01T13:01:39.345Z,28.38
2019-06-01T13:04:08.909Z,28.39
2019-06-01T13:06:38.146Z,29.85
2019-06-01T13:09:09.020Z,30.96
2019-06-01T13:30:01.815Z,31.97
2019-06-01T13:32:31.693Z,32.99
2019-06-01T13:35:01.396Z,32.99
2019-06-01T13:37:30.649Z,33.25
2019-06-01T13:40:02.600Z,33.96
2019-06-01T13:42:33.165Z,33.00
2019-06-01T13:50:15.124Z,34.10
2019-06-01T13:52:45.823Z,33.96
2019-06-01T13:55:15.148Z,35.25
2019-06-01T13:57:44.369Z,34.66
2019-06-01T14:00:15.769Z,34.17
2019-06-01T14:02:49.593Z,35.45
2019-06-01T14:05:16.040Z,35.36
2019-06-01T14:07:45.512Z,34.30
2019-06-01T14:10:15.069Z,34.71
2019-06-01T14:12:45.244Z,36.02
2019-06-01T14:15:15.226Z,36.10
2019-06-01T14:17:45.921Z,36.96
2019-06-01T14:20:16.306Z,37.23
2019-06-01T14:22:45.899Z,36.52
2019-06-01T14:25:16.596Z,36.49
2019-06-01T14:27:46.118Z,37.19
2019-06-01T14:30:15.734Z,35.98
2019-06-01T14:32:46.169Z,36.27
2019-06-01T14:35:15.586Z,36.49
2019-06-01T14:37:44.826Z,36.07
2019-06-01T14:40:14.398Z,36.37
2019-06-01T14:42:44.101Z,35.41
2019-06-01T14:45:13.968Z,35.99
2019-06-01T14:47:43.501Z,36.23
2019-06-01T14:50:13.260Z,36.54
2019-06-01T14:52:42.952Z,37.03
2019-06-01T14:55:13.627Z,35.78
2019-06-01T14:57:42.848Z,36.38
2019-06-01T15:00:12.936Z,36.99
2019-06-01T15:02:42.454Z,36.82
2019-06-01T15:05:11.890Z,36.33
2019-06-01T15:07:41.135Z,35.47
2019-06-01T15:10:11.503Z,34.03
2019-06-01T15:12:40.775Z,35.40
2019-06-01T15:15:10.830Z,35.69
2019-06-01T15:17:42.532Z,36.30
2019-06-01T15:20:13.440Z,36.44
2019-06-01T15:22:42.708Z,35.86
2019-06-01T15:25:13.719Z,36.00
2019-06-01T15:27:42.980Z,36.43
2019-06-01T15:30:12.938Z,36.26
2019-06-01T15:32:42.361Z,36.51
2019-06-01T15:35:12.195Z,36.84
2019-06-01T15:37:41.448Z,36.08
2019-06-01T15:40:11.764Z,35.79
2019-06-01T15:42:42.600Z,35.56
2019-06-01T15:45:13.702Z,34.99
2019-06-01T15:47:43.336Z,34.39
2019-06-01T15:50:13.218Z,34.75
2019-06-01T15:52:42.852Z,34.86
2019-06-01T15:55:12.496Z,34.80
2019-06-01T15:57:43.133Z,34.79
2019-06-01T16:00:14.065Z,34.69
2019-06-01T16:02:43.721Z,34.71
2019-06-01T16:05:13.254Z,34.77
2019-06-01T16:07:42.917Z,34.24
2019-06-01T16:10:14.039Z,34.92
2019-06-01T16:12:43.295Z,34.63
2019-06-01T16:15:15.563Z,34.55
2019-06-01T16:17:44.960Z,33.90
2019-06-01T16:20:15.777Z,34.10
2019-06-01T16:22:45.041Z,33.95
2019-06-01T16:25:16.027Z,33.18
2019-06-01T16:27:45.556Z,33.01
2019-06-01T16:30:15.598Z,32.32
2019-06-01T16:32:44.903Z,32.02
2019-06-01T16:35:14.223Z,31.92
2019-06-01T16:37:43.458Z,31.87
2019-06-01T16:40:13.925Z,31.61
2019-06-01T16:42:44.525Z,30.94
2019-06-01T16:45:14.343Z,30.73
2019-06-01T16:47:43.991Z,31.51
2019-06-01T16:50:13.658Z,32.06
2019-06-01T16:52:43.040Z,32.16
2019-06-01T16:55:13.136Z,32.40
2019-06-01T16:57:42.529Z,31.69
2019-06-01T17:00:12.247Z,31.16
2019-06-01T17:02:45.432Z,31.21
2019-06-01T17:05:14.881Z,30.94
2019-06-01T17:07:44.186Z,31.40
2019-06-01T17:10:25.545Z,31.79
2019-06-01T17:12:45.697Z,32.10
2019-06-01T17:15:15.507Z,32.17
2019-06-01T17:17:45.391Z,31.96
2019-06-01T17:20:44.009Z,31.74
2019-06-01T17:23:27.495Z,31.53
2019-06-01T17:25:46.043Z,30.72
2019-06-01T17:28:16.244Z,29.82
2019-06-01T17:30:45.788Z,29.73
2019-06-01T17:33:15.359Z,29.12
2019-06-01T17:35:45.666Z,29.02
2019-06-01T17:38:15.298Z,28.82
2019-06-01T17:40:44.528Z,28.87
2019-06-01T17:43:14.220Z,29.12
2019-06-01T17:45:43.554Z,29.55
2019-06-01T17:48:25.801Z,30.07
2019-06-01T17:50:45.144Z,30.40
2019-06-01T17:53:14.406Z,30.56
2019-06-01T17:55:45.724Z,30.50
2019-06-01T17:58:15.204Z,31.02
2019-06-01T18:00:44.722Z,30.73
2019-06-01T18:03:14.123Z,30.93
2019-06-01T18:05:44.195Z,31.17
2019-06-01T18:08:14.086Z,30.48
2019-06-01T18:10:53.887Z,31.17
2019-06-01T18:13:16.018Z,31.29
2019-06-01T18:15:45.698Z,31.54
2019-06-01T18:18:15.660Z,31.62
2019-06-01T18:20:45.007Z,31.52
2019-06-01T18:23:14.540Z,31.12
2019-06-01T18:25:44.121Z,31.84
2019-06-01T18:28:19.061Z,31.59
2019-06-01T18:30:45.282Z,31.42
2019-06-01T18:33:14.831Z,30.75
2019-06-01T18:35:44.617Z,30.38
2019-06-01T18:38:14.848Z,29.17
2019-06-01T18:40:44.347Z,28.16
2019-06-01T18:43:17.235Z,27.81
2019-06-01T18:45:47.349Z,27.68
2019-06-01T18:48:17.984Z,27.37
2019-06-01T18:50:48.383Z,26.92
2019-06-01T18:53:17.743Z,26.68
2019-06-01T18:55:47.006Z,26.63
2019-06-01T18:58:17.617Z,26.41
2019-06-01T19:00:47.344Z,26.29
2019-06-01T19:03:19.950Z,26.02
2019-06-01T19:05:49.531Z,25.68
2019-06-01T19:08:18.785Z,25.55
2019-06-01T19:10:49.044Z,25.50
2019-06-01T19:13:19.021Z,25.41
2019-06-01T19:15:48.507Z,25.47
2019-06-01T19:18:17.833Z,25.45
2019-06-01T19:20:47.155Z,25.29
2019-06-01T19:23:21.412Z,25.25
2019-06-01T19:25:47.827Z,25.17
2019-06-01T19:28:17.919Z,25.03
2019-06-01T19:30:48.452Z,24.90
2019-06-01T19:33:19.396Z,24.72
2019-06-01T19:35:50.217Z,24.67
2019-06-01T19:38:21.571Z,24.68
2019-06-01T19:40:50.842Z,24.52
2019-06-01T19:43:20.532Z,24.32
2019-06-01T19:45:57.467Z,24.16
2019-06-01T19:48:33.059Z,23.91
2019-06-01T19:51:02.341Z,23.74
2019-06-01T19:53:31.668Z,23.76
2019-06-01T19:56:01.302Z,23.66
2019-06-01T19:58:30.958Z,23.58
2019-06-01T20:01:00.819Z,23.47
2019-06-01T20:03:30.246Z,23.38
2019-06-01T20:05:59.608Z,23.14
2019-06-01T20:08:29.687Z,22.90
2019-06-01T20:10:59.319Z,22.92
2019-06-01T20:13:28.544Z,22.64
2019-06-01T20:15:58.272Z,22.61
2019-06-01T20:18:27.555Z,22.57
2019-06-01T20:20:59.401Z,22.48
2019-06-01T20:23:28.629Z,22.46
2019-06-01T20:25:58.277Z,22.31
2019-06-01T20:28:28.261Z,22.26
2019-06-01T20:30:57.611Z,22.22
2019-06-01T20:33:26.892Z,21.99
2019-06-01T20:35:56.151Z,22.00
2019-06-01T20:38:25.913Z,21.84
2019-06-01T20:40:56.149Z,21.80
2019-06-01T20:43:25.936Z,21.52
2019-06-01T20:45:57.044Z,21.32
2019-06-01T20:48:26.411Z,21.42
2019-06-01T20:50:55.614Z,21.51
2019-06-01T20:53:24.887Z,21.43
2019-06-01T20:55:54.736Z,21.47
2019-06-01T20:58:24.962Z,21.40
2019-06-01T21:00:54.673Z,21.27
2019-06-01T21:03:24.519Z,20.77
2019-06-01T21:05:54.790Z,20.75
2019-06-01T21:08:24.313Z,20.79
2019-06-01T21:10:54.195Z,20.93
2019-06-01T21:13:24.175Z,20.88
2019-06-01T21:15:53.903Z,20.89
2019-06-01T21:18:23.185Z,20.64
2019-06-01T21:20:52.422Z,20.63
2019-06-01T21:23:22.545Z,20.64
2019-06-01T21:25:52.321Z,20.54
2019-06-01T21:28:22.459Z,20.22
2019-06-01T21:30:52.803Z,20.20
2019-06-01T21:33:25.363Z,20.30
2019-06-01T21:35:53.378Z,20.33
2019-06-01T21:38:23.722Z,20.29
2019-06-01T21:40:53.425Z,20.20
2019-06-01T21:43:29.503Z,20.09
2019-06-01T21:45:53.700Z,20.08
2019-06-01T21:48:23.873Z,19.92
2019-06-01T21:50:53.554Z,19.51
2019-06-01T21:53:22.821Z,19.57
2019-06-01T21:55:52.052Z,19.42
2019-06-01T21:58:22.722Z,19.28
2019-06-01T22:00:52.422Z,19.35
2019-06-01T22:03:23.126Z,19.40
2019-06-01T22:05:52.737Z,19.36
2019-06-01T22:08:23.162Z,19.14
2019-06-01T22:10:52.514Z,19.08
2019-06-01T22:13:27.088Z,19.11
2019-06-01T22:15:56.269Z,19.11
2019-06-01T22:20:46.841Z,19.06
2019-06-01T22:23:17.827Z,18.89
2019-06-01T22:25:47.162Z,18.70
2019-06-01T22:28:16.443Z,18.80
2019-06-01T22:30:45.704Z,18.78
2019-06-01T22:33:14.935Z,18.78
2019-06-01T22:35:44.742Z,18.52
2019-06-01T22:38:14.689Z,18.69
2019-06-01T22:40:44.159Z,18.71
2019-06-01T22:43:13.824Z,18.50
2019-06-01T22:45:43.141Z,18.46
2019-06-01T22:48:12.997Z,18.52
2019-06-01T22:50:42.299Z,18.36
2019-06-01T22:53:11.601Z,18.29
2019-06-01T22:55:40.857Z,18.07
2019-06-01T22:58:10.153Z,17.98
2019-06-01T23:00:39.823Z,17.84
2019-06-01T23:03:09.342Z,17.73
2019-06-01T23:05:38.603Z,17.76
2019-06-01T23:08:08.237Z,17.77
2019-06-01T23:10:38.161Z,17.91
2019-06-01T23:13:08.169Z,17.81
2019-06-01T23:15:37.606Z,17.87
2019-06-01T23:18:06.870Z,17.92
2019-06-01T23:20:36.218Z,17.84
2019-06-01T23:23:06.035Z,17.88
2019-06-01T23:25:35.308Z,17.91
2019-06-01T23:28:05.151Z,17.83
2019-06-01T23:30:34.443Z,17.75
2019-06-01T23:33:03.698Z,17.64
2019-06-01T23:35:33.248Z,17.65
2019-06-01T23:38:02.759Z,17.40
2019-06-01T23:40:33.273Z,17.30
2019-06-01T23:43:02.561Z,17.43
2019-06-01T23:45:32.989Z,17.49
2019-06-01T23:48:02.814Z,17.53
2019-06-01T23:50:32.555Z,17.33
2019-06-01T23:53:13.205Z,17.25
2019-06-01T23:55:34.092Z,17.27
2019-06-01T23:58:03.491Z,17.29
